Atlanta, GA

2:24 PM EDT on May 24, 2015 (GMT -0400)
Buckhead Forest | | Change Station
CLOSE
Current Station
Personal Weather Station
Location: Atlanta, GA
Elevation: 1010 ft
Nearby Weather Stations

Elev 1010 ft 33.84 °N, 84.38 °W | Updated 1 second ago

Partly Cloudy
Partly Cloudy
80.7 °F
Feels Like 82 °F
N
1.0
Wind Variable Wind from SSE
Gusts 2.0 mph

Today
High -- | Low -- °F
--% Chance of Precip.
Yesterday
High -- | Low -- °F
Precip. -- in
6:31 AM 8:38 PM
Waxing Crescent, 41% visible
Pressure 30.26 in
Visibility 9.0 miles
Clouds Few 4200 ft
Scattered Clouds 5000 ft
Mostly Cloudy 6000 ft
Heat Index 82 °F
Dew Point 62 °F
Humidity 54%
Rainfall 0.00 in
Snow Depth Not available.
UV 0.0 out of 12
Pollen 5.70 out of 12
Air Quality Not available.
Flu Activity Sporadic
METAR KPDK 241753Z 13008KT 090V160 9SM FEW042 SCT050 BKN060 26/16 A3030 RMK AO2 SLP247 T02560156 10267 20178 58020

More Conditions Fewer Conditions

Pressure 30.26 in
Visibility 9.0 miles
Clouds Few 4200 ft
Scattered Clouds 5000 ft
Mostly Cloudy 6000 ft
Heat Index 82 °F
Dew Point 62 °F
Humidity 54%
Rainfall 0.00 in
Snow Depth Not available.
UV 0.0 out of 12
Pollen 5.70 out of 12
Air Quality Not available.
Flu Activity Sporadic
METAR KPDK 241753Z 13008KT 090V160 9SM FEW042 SCT050 BKN060 26/16 A3030 RMK AO2 SLP247 T02560156 10267 20178 58020

More Conditions Fewer Conditions

10-Day Weather Forecast

Almanac

Astronomy

May. 24, 2015 Rise Set
Actual Time
Civil Twilight
Nautical Twilight
Astronomical Twilight
Moon
Length of Visible Light
Length of Day
Tomorrow will be .
, % of the Moon is Illuminated

Today's Extremes

State Highs State Lows

Community

WunderPhotos

Upload Photos

1,823,819 photos uploaded!

WunderBlogs® & News

Nearby

Air Quality

  Air Quality AQ Index Pollutant
Not available.

Snow Depth

Station Depth Elevation

Earthquake Activity

City Distance Mag. Time & Date
Minimum magnitude displayed is 2.5.

Coastal Water Temperatures

Place Temperature

Stations

Nearby Weather Stations

Station Location Temp. Windchill Dew Point Humidity Wind Precip. Elev Updated Type